sensor_id;sensor_type;location;lat;lon;timestamp;pressure;altitude;pressure_sealevel;temperature;humidity
74242;BME280;62599;49.146;10.426;2022-11-15T14:25:34;95141.72;;;10.89;70.52
74242;BME280;62599;49.146;10.426;2022-11-15T14:28:29;95139.88;;;10.77;71.58
74242;BME280;62599;49.146;10.426;2022-11-15T14:30:58;95134.66;;;10.69;71.89
74242;BME280;62599;49.146;10.426;2022-11-15T14:33:30;95133.63;;;10.57;72.39
74242;BME280;62599;49.146;10.426;2022-11-15T14:35:58;95129.59;;;10.51;73.51
74242;BME280;62599;49.146;10.426;2022-11-15T14:38:27;95122.88;;;10.45;73.62
74242;BME280;62599;49.146;10.426;2022-11-15T14:40:52;95120.44;;;10.40;73.79
74242;BME280;62599;49.146;10.426;2022-11-15T14:43:20;95123.50;;;10.39;73.68
74242;BME280;62599;49.146;10.426;2022-11-15T14:45:45;95118.13;;;10.39;73.82
74242;BME280;62599;49.146;10.426;2022-11-15T14:48:11;95101.88;;;10.35;73.26
74242;BME280;62599;49.146;10.426;2022-11-15T14:50:37;95106.81;;;10.33;73.55
74242;BME280;62599;49.146;10.426;2022-11-15T14:53:02;95107.16;;;10.31;73.72
74242;BME280;62599;49.146;10.426;2022-11-15T14:55:31;95104.78;;;10.30;73.78
74242;BME280;62599;49.146;10.426;2022-11-15T14:57:58;95103.44;;;10.24;73.77
74242;BME280;62599;49.146;10.426;2022-11-15T15:00:24;95098.22;;;10.15;73.83
74242;BME280;62599;49.146;10.426;2022-11-15T15:02:52;95104.06;;;10.05;73.95
74242;BME280;62599;49.146;10.426;2022-11-15T15:05:29;95096.06;;;9.93;73.98
74242;BME280;62599;49.146;10.426;2022-11-15T15:07:55;95102.59;;;9.79;74.67
74242;BME280;62599;49.146;10.426;2022-11-15T15:10:21;95096.91;;;9.69;75.10
74242;BME280;62599;49.146;10.426;2022-11-15T15:12:47;95084.72;;;9.59;75.33
74242;BME280;62599;49.146;10.426;2022-11-15T15:15:18;95083.72;;;9.51;75.69
74242;BME280;62599;49.146;10.426;2022-11-15T15:17:45;95080.03;;;9.44;76.68
74242;BME280;62599;49.146;10.426;2022-11-15T15:20:10;95071.75;;;9.36;76.40
74242;BME280;62599;49.146;10.426;2022-11-15T15:22:37;95070.44;;;9.30;77.44
74242;BME280;62599;49.146;10.426;2022-11-15T15:25:02;95066.41;;;9.24;77.70
74242;BME280;62599;49.146;10.426;2022-11-15T15:27:29;95072.03;;;9.19;78.01
74242;BME280;62599;49.146;10.426;2022-11-15T15:29:54;95073.81;;;9.15;78.29
74242;BME280;62599;49.146;10.426;2022-11-15T15:32:20;95067.53;;;9.11;78.47
74242;BME280;62599;49.146;10.426;2022-11-15T15:34:46;95067.41;;;9.07;78.75
74242;BME280;62599;49.146;10.426;2022-11-15T15:39:48;95066.41;;;9.00;78.77
74242;BME280;62599;49.146;10.426;2022-11-15T15:42:18;95061.59;;;8.93;78.98
74242;BME280;62599;49.146;10.426;2022-11-15T15:44:44;95068.31;;;8.87;79.32
74242;BME280;62599;49.146;10.426;2022-11-15T15:47:15;95061.59;;;8.81;79.56
74242;BME280;62599;49.146;10.426;2022-11-15T15:49:41;95053.56;;;8.81;79.68
74242;BME280;62599;49.146;10.426;2022-11-15T15:52:06;95061.94;;;8.79;79.84
74242;BME280;62599;49.146;10.426;2022-11-15T15:54:32;95058.81;;;8.77;80.09
74242;BME280;62599;49.146;10.426;2022-11-15T15:56:57;95054.75;;;8.71;80.25
74242;BME280;62599;49.146;10.426;2022-11-15T15:59:23;95056.91;;;8.65;80.96
74242;BME280;62599;49.146;10.426;2022-11-15T16:01:48;95052.84;;;8.59;80.98
74242;BME280;62599;49.146;10.426;2022-11-15T16:04:13;95055.00;;;8.54;81.20
74242;BME280;62599;49.146;10.426;2022-11-15T16:06:40;95062.94;;;8.50;81.63
74242;BME280;62599;49.146;10.426;2022-11-15T16:09:15;95065.94;;;8.49;81.63
74242;BME280;62599;49.146;10.426;2022-11-15T16:11:42;95069.72;;;8.48;82.16
74242;BME280;62599;49.146;10.426;2022-11-15T16:14:07;95061.56;;;8.44;82.18
74242;BME280;62599;49.146;10.426;2022-11-15T16:16:34;95041.88;;;8.40;82.72
74242;BME280;62599;49.146;10.426;2022-11-15T16:18:59;95038.06;;;8.41;82.92
74242;BME280;62599;49.146;10.426;2022-11-15T16:21:31;95037.41;;;8.44;82.73
74242;BME280;62599;49.146;10.426;2022-11-15T16:23:57;95030.59;;;8.47;81.89
74242;BME280;62599;49.146;10.426;2022-11-15T16:26:27;95036.41;;;8.49;81.27
74242;BME280;62599;49.146;10.426;2022-11-15T16:28:54;95028.34;;;8.49;80.42
74242;BME280;62599;49.146;10.426;2022-11-15T16:31:19;95024.47;;;8.46;80.34
74242;BME280;62599;49.146;10.426;2022-11-15T16:33:48;95017.38;;;8.41;79.65
74242;BME280;62599;49.146;10.426;2022-11-15T16:36:24;95013.81;;;8.37;79.88
74242;BME280;62599;49.146;10.426;2022-11-15T16:38:51;95013.81;;;8.37;79.79
74242;BME280;62599;49.146;10.426;2022-11-15T16:41:17;95018.25;;;8.33;79.66
74242;BME280;62599;49.146;10.426;2022-11-15T16:43:50;95004.38;;;8.31;79.73
74242;BME280;62599;49.146;10.426;2022-11-15T16:46:18;95003.28;;;8.32;79.22
74242;BME280;62599;49.146;10.426;2022-11-15T16:48:44;95010.19;;;8.33;79.55
74242;BME280;62599;49.146;10.426;2022-11-15T16:51:10;95013.00;;;8.37;78.88
74242;BME280;62599;49.146;10.426;2022-11-15T16:53:35;95005.63;;;8.34;78.86
74242;BME280;62599;49.146;10.426;2022-11-15T16:56:01;95014.00;;;8.32;78.98
74242;BME280;62599;49.146;10.426;2022-11-15T16:58:26;95018.91;;;8.30;79.09
74242;BME280;62599;49.146;10.426;2022-11-15T17:00:53;95020.22;;;8.24;78.56
74242;BME280;62599;49.146;10.426;2022-11-15T17:03:20;95014.66;;;8.29;79.08
74242;BME280;62599;49.146;10.426;2022-11-15T17:05:45;95008.63;;;8.32;78.78
74242;BME280;62599;49.146;10.426;2022-11-15T17:08:11;95008.06;;;8.27;78.55
74242;BME280;62599;49.146;10.426;2022-11-15T17:10:38;95007.94;;;8.23;78.18
74242;BME280;62599;49.146;10.426;2022-11-15T17:13:05;94991.41;;;8.21;77.85
74242;BME280;62599;49.146;10.426;2022-11-15T17:15:32;94994.88;;;8.22;77.39
74242;BME280;62599;49.146;10.426;2022-11-15T17:17:57;94989.81;;;8.20;77.08
74242;BME280;62599;49.146;10.426;2022-11-15T17:20:23;94991.06;;;8.23;77.20
74242;BME280;62599;49.146;10.426;2022-11-15T17:22:49;94989.50;;;8.22;77.34
74242;BME280;62599;49.146;10.426;2022-11-15T17:25:17;94994.09;;;8.21;76.92
74242;BME280;62599;49.146;10.426;2022-11-15T17:27:43;94987.38;;;8.15;77.34
74242;BME280;62599;49.146;10.426;2022-11-15T17:30:11;94979.09;;;8.08;76.95
74242;BME280;62599;49.146;10.426;2022-11-15T17:32:36;94974.84;;;8.07;77.29
74242;BME280;62599;49.146;10.426;2022-11-15T17:35:03;94965.56;;;8.04;77.50
74242;BME280;62599;49.146;10.426;2022-11-15T17:37:32;94968.91;;;8.01;77.94
74242;BME280;62599;49.146;10.426;2022-11-15T17:39:58;94974.13;;;7.97;78.30
74242;BME280;62599;49.146;10.426;2022-11-15T17:42:23;94975.69;;;7.99;77.91
74242;BME280;62599;49.146;10.426;2022-11-15T17:44:48;94970.69;;;7.97;78.29
74242;BME280;62599;49.146;10.426;2022-11-15T17:47:14;94971.03;;;7.95;78.53
74242;BME280;62599;49.146;10.426;2022-11-15T17:49:39;94968.66;;;7.94;78.32
74242;BME280;62599;49.146;10.426;2022-11-15T17:52:06;94963.28;;;7.94;78.13
74242;BME280;62599;49.146;10.426;2022-11-15T17:54:32;94966.09;;;7.97;78.73
74242;BME280;62599;49.146;10.426;2022-11-15T17:56:57;94964.97;;;7.99;78.24
74242;BME280;62599;49.146;10.426;2022-11-15T17:59:22;94958.06;;;7.97;78.49
74242;BME280;62599;49.146;10.426;2022-11-15T18:01:48;94956.72;;;8.04;78.28
74242;BME280;62599;49.146;10.426;2022-11-15T18:04:13;94960.53;;;8.03;78.24
74242;BME280;62599;49.146;10.426;2022-11-15T18:06:39;94962.63;;;7.97;78.51
74242;BME280;62599;49.146;10.426;2022-11-15T18:09:05;94948.44;;;7.96;78.68
74242;BME280;62599;49.146;10.426;2022-11-15T18:11:40;94943.28;;;7.91;79.03
74242;BME280;62599;49.146;10.426;2022-11-15T18:14:08;94947.88;;;7.91;79.26
74242;BME280;62599;49.146;10.426;2022-11-15T18:16:36;94951.66;;;7.90;79.41
74242;BME280;62599;49.146;10.426;2022-11-15T18:19:01;94953.13;;;7.87;79.54
74242;BME280;62599;49.146;10.426;2022-11-15T18:21:32;94945.75;;;7.84;79.40
74242;BME280;62599;49.146;10.426;2022-11-15T18:24:00;94942.72;;;7.86;79.88
74242;BME280;62599;49.146;10.426;2022-11-15T18:26:27;94941.50;;;7.83;80.03
74242;BME280;62599;49.146;10.426;2022-11-15T18:28:55;94941.38;;;7.80;80.48
74242;BME280;62599;49.146;10.426;2022-11-15T18:31:26;94935.88;;;7.76;80.51
74242;BME280;62599;49.146;10.426;2022-11-15T18:33:52;94938.13;;;7.74;80.74
74242;BME280;62599;49.146;10.426;2022-11-15T18:36:22;94930.41;;;7.72;81.04
74242;BME280;62599;49.146;10.426;2022-11-15T18:38:53;94921.94;;;7.70;81.17
74242;BME280;62599;49.146;10.426;2022-11-15T18:41:20;94912.00;;;7.71;81.02
74242;BME280;62599;49.146;10.426;2022-11-15T18:43:49;94918.00;;;7.68;81.26
74242;BME280;62599;49.146;10.426;2022-11-15T18:46:20;94920.91;;;7.63;81.79
74242;BME280;62599;49.146;10.426;2022-11-15T18:48:46;94922.00;;;7.62;81.99
74242;BME280;62599;49.146;10.426;2022-11-15T18:51:17;94910.84;;;7.60;82.00
74242;BME280;62599;49.146;10.426;2022-11-15T18:53:43;94909.06;;;7.64;82.47
74242;BME280;62599;49.146;10.426;2022-11-15T18:56:14;94907.03;;;7.61;82.26
74242;BME280;62599;49.146;10.426;2022-11-15T18:58:45;94907.25;;;7.56;82.66
74242;BME280;62599;49.146;10.426;2022-11-15T19:01:13;94901.44;;;7.54;82.90
74242;BME280;62599;49.146;10.426;2022-11-15T19:03:42;94898.31;;;7.52;83.09
74242;BME280;62599;49.146;10.426;2022-11-15T19:06:12;94907.47;;;7.51;83.21
74242;BME280;62599;49.146;10.426;2022-11-15T19:08:39;94904.00;;;7.50;82.92
74242;BME280;62599;49.146;10.426;2022-11-15T19:11:25;94897.41;;;7.47;83.17
74242;BME280;62599;49.146;10.426;2022-11-15T19:13:57;94893.50;;;7.45;83.29
74242;BME280;62599;49.146;10.426;2022-11-15T19:16:24;94896.19;;;7.45;83.52
74242;BME280;62599;49.146;10.426;2022-11-15T19:18:57;94894.28;;;7.45;83.92
74242;BME280;62599;49.146;10.426;2022-11-15T19:21:24;94891.38;;;7.51;84.14
74242;BME280;62599;49.146;10.426;2022-11-15T19:23:50;94884.47;;;7.50;83.46
74242;BME280;62599;49.146;10.426;2022-11-15T19:26:19;94880.22;;;7.48;83.92
74242;BME280;62599;49.146;10.426;2022-11-15T19:28:53;94877.09;;;7.46;83.64
74242;BME280;62599;49.146;10.426;2022-11-15T19:31:19;94875.97;;;7.47;83.89
74242;BME280;62599;49.146;10.426;2022-11-15T19:33:46;94872.50;;;7.47;84.06
74242;BME280;62599;49.146;10.426;2022-11-15T19:36:29;94868.59;;;7.44;84.47
74242;BME280;62599;49.146;10.426;2022-11-15T19:38:57;94875.84;;;7.44;84.51
74242;BME280;62599;49.146;10.426;2022-11-15T19:41:24;94869.03;;;7.46;84.61
74242;BME280;62599;49.146;10.426;2022-11-15T19:43:50;94872.38;;;7.43;84.51
74242;BME280;62599;49.146;10.426;2022-11-15T19:46:17;94878.22;;;7.45;84.84
74242;BME280;62599;49.146;10.426;2022-11-15T19:48:44;94872.72;;;7.42;84.91
74242;BME280;62599;49.146;10.426;2022-11-15T19:51:13;94867.03;;;7.43;85.00
74242;BME280;62599;49.146;10.426;2022-11-15T19:53:39;94871.59;;;7.43;85.09
74242;BME280;62599;49.146;10.426;2022-11-15T19:56:08;94874.09;;;7.48;85.20
74242;BME280;62599;49.146;10.426;2022-11-15T19:58:38;94872.19;;;7.48;84.83
74242;BME280;62599;49.146;10.426;2022-11-15T20:01:37;94860.69;;;7.48;85.24
74242;BME280;62599;49.146;10.426;2022-11-15T20:04:03;94872.19;;;7.48;85.21
74242;BME280;62599;49.146;10.426;2022-11-15T20:06:31;94869.03;;;7.46;85.51
74242;BME280;62599;49.146;10.426;2022-11-15T20:08:57;94867.94;;;7.47;85.90
74242;BME280;62599;49.146;10.426;2022-11-15T20:11:23;94869.03;;;7.46;85.95
74242;BME280;62599;49.146;10.426;2022-11-15T20:13:48;94873.28;;;7.47;86.08
74242;BME280;62599;49.146;10.426;2022-11-15T20:16:21;94871.28;;;7.44;85.82
74242;BME280;62599;49.146;10.426;2022-11-15T20:18:47;94872.19;;;7.48;85.51
74242;BME280;62599;49.146;10.426;2022-11-15T20:21:13;94871.06;;;7.50;85.87
74242;BME280;62599;49.146;10.426;2022-11-15T20:23:39;94863.38;;;7.48;85.71
74242;BME280;62599;49.146;10.426;2022-11-15T20:26:05;94862.56;;;7.47;85.55
74242;BME280;62599;49.146;10.426;2022-11-15T20:28:30;94861.13;;;7.50;85.58
74242;BME280;62599;49.146;10.426;2022-11-15T20:30:58;94846.72;;;7.55;85.15
74242;BME280;62599;49.146;10.426;2022-11-15T20:33:24;94854.22;;;7.61;85.10
74242;BME280;62599;49.146;10.426;2022-11-15T20:35:51;94845.41;;;7.61;85.10
74242;BME280;62599;49.146;10.426;2022-11-15T20:38:17;94835.34;;;7.58;84.81
74242;BME280;62599;49.146;10.426;2022-11-15T20:40:44;94841.06;;;7.56;84.75
74242;BME280;62599;49.146;10.426;2022-11-15T20:43:12;94829.09;;;7.54;85.23
74242;BME280;62599;49.146;10.426;2022-11-15T20:45:39;94832.91;;;7.53;85.00
74242;BME280;62599;49.146;10.426;2022-11-15T20:48:05;94824.84;;;7.53;85.16
74242;BME280;62599;49.146;10.426;2022-11-15T20:50:30;94822.19;;;7.53;85.33
74242;BME280;62599;49.146;10.426;2022-11-15T20:52:56;94824.19;;;7.56;85.58
74242;BME280;62599;49.146;10.426;2022-11-15T20:55:27;94818.59;;;7.61;85.53
74242;BME280;62599;49.146;10.426;2022-11-15T20:57:53;94827.66;;;7.68;84.97
74242;BME280;62599;49.146;10.426;2022-11-15T21:00:18;94804.56;;;7.64;84.98
74242;BME280;62599;49.146;10.426;2022-11-15T21:02:49;94806.88;;;7.65;84.66
74242;BME280;62599;49.146;10.426;2022-11-15T21:05:14;94810.03;;;7.67;84.47
74242;BME280;62599;49.146;10.426;2022-11-15T21:07:40;94804.56;;;7.64;84.87
74242;BME280;62599;49.146;10.426;2022-11-15T21:10:05;94805.44;;;7.68;85.20
74242;BME280;62599;49.146;10.426;2022-11-15T21:12:49;94788.47;;;7.64;85.02
74242;BME280;62599;49.146;10.426;2022-11-15T21:15:16;94782.44;;;7.67;85.12
74242;BME280;62599;49.146;10.426;2022-11-15T21:17:41;94788.47;;;7.64;85.13
74242;BME280;62599;49.146;10.426;2022-11-15T21:20:07;94791.47;;;7.62;85.51
74242;BME280;62599;49.146;10.426;2022-11-15T21:22:32;94784.44;;;7.58;85.65
74242;BME280;62599;49.146;10.426;2022-11-15T21:24:58;94784.44;;;7.58;84.91
74242;BME280;62599;49.146;10.426;2022-11-15T21:27:25;94781.88;;;7.49;85.62
74242;BME280;62599;49.146;10.426;2022-11-15T21:29:50;94790.91;;;7.44;85.71
74242;BME280;62599;49.146;10.426;2022-11-15T21:32:19;94779.84;;;7.34;85.28
74242;BME280;62599;49.146;10.426;2022-11-15T21:34:44;94778.69;;;7.22;85.57
74242;BME280;62599;49.146;10.426;2022-11-15T21:37:11;94771.19;;;7.04;86.03
74242;BME280;62599;49.146;10.426;2022-11-15T21:39:37;94780.56;;;6.97;86.01
74242;BME280;62599;49.146;10.426;2022-11-15T21:42:04;94768.91;;;6.81;87.01
74242;BME280;62599;49.146;10.426;2022-11-15T21:44:30;94772.19;;;6.66;87.67
74242;BME280;62599;49.146;10.426;2022-11-15T21:46:56;94758.66;;;6.50;88.01
74242;BME280;62599;49.146;10.426;2022-11-15T21:49:22;94752.22;;;6.42;88.85
74242;BME280;62599;49.146;10.426;2022-11-15T21:51:50;94744.63;;;6.32;89.09
74242;BME280;62599;49.146;10.426;2022-11-15T21:54:16;94756.09;;;6.33;89.75
74242;BME280;62599;49.146;10.426;2022-11-15T21:56:44;94758.84;;;6.24;91.02
74242;BME280;62599;49.146;10.426;2022-11-15T21:59:09;94768.88;;;6.27;91.54
74242;BME280;62599;49.146;10.426;2022-11-15T22:01:44;94761.34;;;6.29;91.99
74242;BME280;62599;49.146;10.426;2022-11-15T22:04:28;94756.41;;;6.31;92.01
74242;BME280;62599;49.146;10.426;2022-11-15T22:06:53;94750.63;;;6.29;91.54
74242;BME280;62599;49.146;10.426;2022-11-15T22:09:19;94741.25;;;6.23;91.52
74242;BME280;62599;49.146;10.426;2022-11-15T22:11:44;94740.47;;;6.22;91.50
74242;BME280;62599;49.146;10.426;2022-11-15T22:14:09;94732.31;;;6.19;91.50
74242;BME280;62599;49.146;10.426;2022-11-15T22:16:35;94724.50;;;6.14;92.26
74242;BME280;62599;49.146;10.426;2022-11-15T22:19:02;94726.06;;;6.15;92.56
74242;BME280;62599;49.146;10.426;2022-11-15T22:21:28;94734.72;;;6.12;92.63
74242;BME280;62599;49.146;10.426;2022-11-15T22:23:53;94725.78;;;6.08;92.71
74242;BME280;62599;49.146;10.426;2022-11-15T22:26:19;94726.91;;;6.07;92.83
74242;BME280;62599;49.146;10.426;2022-11-15T22:28:45;94712.28;;;6.04;93.21
74242;BME280;62599;49.146;10.426;2022-11-15T22:31:11;94707.25;;;6.02;93.65
74242;BME280;62599;49.146;10.426;2022-11-15T22:33:37;94711.97;;;6.06;93.95
74242;BME280;62599;49.146;10.426;2022-11-15T22:36:04;94700.31;;;6.10;94.15
74242;BME280;62599;49.146;10.426;2022-11-15T22:38:30;94691.47;;;6.10;94.32
74242;BME280;62599;49.146;10.426;2022-11-15T22:40:56;94693.97;;;6.15;93.77
74242;BME280;62599;49.146;10.426;2022-11-15T22:43:23;94695.53;;;6.16;93.75
74242;BME280;62599;49.146;10.426;2022-11-15T22:48:25;94696.06;;;6.09;93.52
74242;BME280;62599;49.146;10.426;2022-11-15T22:50:54;94700.75;;;6.12;93.58
74242;BME280;62599;49.146;10.426;2022-11-15T22:53:20;94699.50;;;6.10;93.29
74242;BME280;62599;49.146;10.426;2022-11-15T22:55:54;94694.97;;;6.10;93.61
74242;BME280;62599;49.146;10.426;2022-11-15T22:58:21;94691.59;;;6.13;93.65
74242;BME280;62599;49.146;10.426;2022-11-15T23:00:51;94690.00;;;6.21;94.00
74242;BME280;62599;49.146;10.426;2022-11-15T23:03:18;94685.09;;;6.23;93.54
74242;BME280;62599;49.146;10.426;2022-11-15T23:05:44;94674.66;;;6.30;93.58
74242;BME280;62599;49.146;10.426;2022-11-15T23:08:10;94675.13;;;6.32;93.64
74242;BME280;62599;49.146;10.426;2022-11-15T23:10:37;94665.72;;;6.26;93.48
74242;BME280;62599;49.146;10.426;2022-11-15T23:13:20;94655.34;;;6.24;93.47
74242;BME280;62599;49.146;10.426;2022-11-15T23:15:48;94663.69;;;6.23;93.42
74242;BME280;62599;49.146;10.426;2022-11-15T23:18:38;94668.41;;;6.26;93.78
74242;BME280;62599;49.146;10.426;2022-11-15T23:21:14;94656.78;;;6.22;93.98
74242;BME280;62599;49.146;10.426;2022-11-15T23:23:40;94665.94;;;6.21;93.86
74242;BME280;62599;49.146;10.426;2022-11-15T23:26:07;94669.50;;;6.25;93.70
74242;BME280;62599;49.146;10.426;2022-11-15T23:28:33;94656.53;;;6.15;93.92
74242;BME280;62599;49.146;10.426;2022-11-15T23:31:05;94658.44;;;6.14;94.08
74242;BME280;62599;49.146;10.426;2022-11-15T23:33:50;94658.75;;;6.13;94.14
74242;BME280;62599;49.146;10.426;2022-11-15T23:36:28;94655.81;;;6.06;94.28
74242;BME280;62599;49.146;10.426;2022-11-15T23:38:54;94657.06;;;6.08;94.39
74242;BME280;62599;49.146;10.426;2022-11-15T23:41:20;94657.84;;;6.09;94.16
74242;BME280;62599;49.146;10.426;2022-11-15T23:43:50;94653.94;;;6.06;94.45
74242;BME280;62599;49.146;10.426;2022-11-15T23:46:16;94652.19;;;6.10;94.67
74242;BME280;62599;49.146;10.426;2022-11-15T23:48:41;94653.22;;;6.18;94.47
74242;BME280;62599;49.146;10.426;2022-11-15T23:51:07;94648.97;;;6.17;94.93
74242;BME280;62599;49.146;10.426;2022-11-15T23:53:33;94642.06;;;6.16;94.55
74242;BME280;62599;49.146;10.426;2022-11-15T23:56:04;94646.88;;;6.22;95.03
74242;BME280;62599;49.146;10.426;2022-11-15T23:58:33;94641.97;;;6.24;94.57
